x

San Juan, Pr (41053) Wave Buoy

4:00am - Sun 31st Aug 2014 All times are AST. -4 hours from GMT.

  • Sig Wave height 3.6ft
  • Peak Period 5s
  • Wind
    9mph, 11mph gusts
  • Sea Temp 83°f
  • Air Temp 82°f
  • Sea Pressure 1014.9mb
  • San Juan, Pr
  • San Juan, Pr

More Historic Weather Station data

Upgrade to MSW Pro to gain access to the past 30 days of data for over 8000 Wavebouys and Weather Stations around the globe.

Join Pro

Comparision Forecast

View Surf forecast
   
Sun 08/31 4:00am 3.5ft 5s 9 11 mph 1014.9mb 83f 82f
3:00am 3.5ft 5s 7 11 mph 1015.2mb 83f 82f
2:00am 3.5ft 5s 7 9 mph 1015.5mb 83f 82f
1:00am 3.5ft 6s 11 13 mph 1015.9mb 84f 82f
12:00am 3.5ft 6s 9 11 mph 1016.5mb 84f 82f
Sat 08/30 11:00pm 3.5ft 6s 11 13 mph 1016.8mb 84f 82f
10:00pm 3.5ft 6s 9 11 mph 1017.1mb 84f 82f
9:00pm 3.5ft 6s 9 11 mph 1017.1mb 84f 82f
8:00pm 3.5ft 6s 18 20 mph 1017.1mb - 80f
7:00pm 3.5ft 6s 13 16 mph 1016.4mb 84f 84f
6:00pm 3.5ft 5s 16 20 mph 1015.9mb 84f 84f
5:00pm 3.5ft 5s 16 20 mph 1015.8mb 84f 83f
4:00pm 3.5ft 5s 18 22 mph 1015.7mb 84f 84f
3:00pm 3.5ft 5s 18 22 mph 1015.8mb 84f 84f
2:00pm 3.5ft 5s 18 22 mph 1016.4mb 84f 84f
1:00pm 3.5ft 5s 18 22 mph 1017mb 84f 83f
12:00pm 3ft 8s 16 20 mph 1017.5mb 84f 84f
11:00am 3ft 4s 16 18 mph 1017.6mb 84f 84f
10:00am 3ft 7s 16 18 mph 1017.6mb 84f 84f
9:00am 3ft 8s 7 9 mph 1017.3mb 84f 83f
8:00am 2.5ft 8s 4 9 mph 1016.8mb 84f 82f
7:00am 2.5ft 8s 9 11 mph 1016.5mb 83f 80f
6:00am 2.5ft 9s 2 4 mph 1016.2mb 84f 80f
5:00am 2.5ft 9s 4 7 mph 1016.1mb 83f 80f
4:00am 2.5ft 9s 2
mph
1015.9mb 83f 80f
3:00am 2.5ft 9s 4
mph
1016mb 83f 80f
2:00am 3ft 8s 4
mph
1016.4mb 84f 81f
1:00am 3ft 5s 4
mph
1017mb 84f 81f
12:00am 2.5ft 9s 2 4 mph 1017.2mb 84f 81f
Fri 08/29 11:00pm 2.5ft 9s 2 4 mph 1017.3mb 84f 82f
10:00pm 2.5ft 6s 4
mph
1017.1mb 84f 82f
9:00pm 2.5ft 6s 4 7 mph 1016.7mb 84f 83f
8:00pm 3ft 9s 7 9 mph 1015.9mb 84f 82f
7:00pm 3ft 6s 11 13 mph 1015.3mb 84f 82f
6:00pm 3ft 6s 11 13 mph 1015.1mb 84f 82f
5:00pm 3.5ft 7s 11 13 mph 1014.9mb 84f 82f
4:00pm 3.5ft 6s 9 11 mph 1014.7mb 84f 83f
3:00pm 3.5ft 11s 11 16 mph 1014.7mb 84f 82f
2:00pm 3.5ft 6s 16 20 mph 1015.2mb 84f 83f
1:00pm 3ft 7s 13 16 mph 1015.8mb 84f 83f
12:00pm 3ft 11s 11 16 mph 1016.5mb 84f 83f
11:00am 3ft 6s 7 9 mph 1016.5mb 84f 83f
10:00am 3ft 7s 4 7 mph 1017mb 84f 82f
9:00am 3ft 11s 4 7 mph 1016.4mb 83f 82f
8:00am 3ft 6s 4 7 mph 1016.2mb 83f 81f
7:00am 3ft 6s 4 7 mph 1015.6mb 83f 80f
6:00am 3ft 7s 4 7 mph 1015.2mb 83f 80f
5:00am 3.5ft 6s 7 9 mph 1014.9mb 83f 79f
4:00am 3.5ft 6s 7 9 mph 1014.9mb 83f 79f
3:00am 3ft 5s 4 7 mph 1015.1mb 83f 80f
2:00am 3.5ft 5s 7 9 mph 1015.2mb 83f 81f
1:00am 3.5ft 6s 7 9 mph 1015.8mb 83f 81f
12:00am 3.5ft 7s 4 7 mph 1016.1mb 84f 82f
Thu 08/28 11:00pm 3.5ft 6s 4 7 mph 1016.4mb 84f 82f
10:00pm 4ft 6s 9 13 mph 1016.1mb 84f 83f
9:00pm 4ft 7s 9 11 mph 1015.6mb 84f 83f
8:00pm 4.5ft 7s 13 16 mph 1015.2mb 84f 83f
7:00pm 4.5ft 7s 16 20 mph 1014.3mb 84f 84f
6:00pm 4.5ft 6s 20 25 mph 1013.7mb 84f 85f
5:00pm 4.5ft 6s 18 20 mph 1013.5mb 84f 85f
4:00pm 4.5ft 7s 20 25 mph 1013.1mb 84f 85f
3:00pm 4.5ft 7s 20 27 mph 1012.9mb 84f 85f
2:00pm 5ft 7s 20 27 mph 1013.5mb 84f 85f
1:00pm 4.5ft 7s 22 27 mph 1014.3mb 84f 85f
12:00pm 5ft 7s 20 25 mph 1014.7mb 84f 85f
11:00am 5ft 7s 20 25 mph 1015mb 84f 85f
10:00am 4.5ft 8s 20 27 mph 1015mb 84f 85f
9:00am 4.5ft 7s 20 25 mph 1014.9mb 84f 84f
8:00am 5ft 7s 20 25 mph 1014.6mb 84f 84f
7:00am 5ft 6s 22 27 mph 1014.2mb 84f 84f
6:00am 5ft 7s 20 25 mph 1013.8mb 84f 84f
5:00am 5ft 6s 20 27 mph 1013.6mb 84f 84f
4:00am 4.5ft 6s 20 27 mph 1013.4mb 84f 84f
3:00am 4.5ft 7s 20 22 mph 1013.8mb 84f 84f
2:00am 4.5ft 7s 18 22 mph 1014mb 84f 84f
1:00am 5ft 6s 20 25 mph 1015.2mb 84f 84f
12:00am 5ft 8s 20 27 mph 1015.9mb 84f 84f
Wed 08/27 11:00pm 5ft 8s 20 22 mph 1016.6mb 84f 85f
10:00pm 5ft 7s 18 22 mph 1016.5mb 84f 85f
9:00pm 4.5ft 7s 18 22 mph 1016mb 84f 85f
8:00pm 4.5ft 7s 20 25 mph 1015.6mb 84f 85f
7:00pm 4.5ft 6s 20 25 mph 1015mb 84f 85f
6:00pm 4ft 7s 20 25 mph 1014.6mb 84f 85f
5:00pm 4ft 7s 18 22 mph 1014.5mb 84f 85f
4:00pm 4.5ft 6s 16 20 mph 1014.4mb 84f 85f
3:00pm 4.5ft 6s 18 22 mph 1014.7mb 84f 85f
2:00pm 4.5ft 6s 18 22 mph 1015mb 84f 85f
1:00pm 4ft 6s 18 22 mph 1015.6mb 84f 85f
12:00pm 4ft 6s 18 22 mph 1016.2mb 84f 85f
11:00am 4ft 6s 16 18 mph 1016.6mb 84f 85f
10:00am 3.5ft 7s 18 20 mph 1016.6mb 84f 84f